sensor_id;sensor_type;location;lat;lon;timestamp;P1;durP1;ratioP1;P2;durP2;ratioP2
37087;SDS011;23002;52.676;6.432;2023-02-14T00:00:48;33.28;;;14.45;;
37087;SDS011;23002;52.676;6.432;2023-02-14T00:03:16;41.13;;;15.02;;
37087;SDS011;23002;52.676;6.432;2023-02-14T00:05:43;38.65;;;14.95;;
37087;SDS011;23002;52.676;6.432;2023-02-14T00:08:11;39.80;;;15.40;;
37087;SDS011;23002;52.676;6.432;2023-02-14T00:10:38;44.05;;;16.05;;
37087;SDS011;23002;52.676;6.432;2023-02-14T00:13:05;40.78;;;15.02;;
37087;SDS011;23002;52.676;6.432;2023-02-14T00:15:32;43.80;;;16.75;;
37087;SDS011;23002;52.676;6.432;2023-02-14T00:17:59;45.53;;;16.83;;
37087;SDS011;23002;52.676;6.432;2023-02-14T00:20:27;50.10;;;17.83;;
37087;SDS011;23002;52.676;6.432;2023-02-14T00:22:54;49.05;;;17.17;;
37087;SDS011;23002;52.676;6.432;2023-02-14T00:25:21;41.63;;;16.08;;
37087;SDS011;23002;52.676;6.432;2023-02-14T00:27:48;46.42;;;16.33;;
37087;SDS011;23002;52.676;6.432;2023-02-14T00:30:16;48.35;;;16.73;;
37087;SDS011;23002;52.676;6.432;2023-02-14T00:32:43;43.83;;;15.98;;
37087;SDS011;23002;52.676;6.432;2023-02-14T00:35:10;47.63;;;17.05;;
37087;SDS011;23002;52.676;6.432;2023-02-14T00:37:37;48.50;;;15.55;;
37087;SDS011;23002;52.676;6.432;2023-02-14T00:40:04;41.95;;;15.73;;
37087;SDS011;23002;52.676;6.432;2023-02-14T00:42:32;36.88;;;14.07;;
37087;SDS011;23002;52.676;6.432;2023-02-14T00:44:59;36.78;;;15.40;;
37087;SDS011;23002;52.676;6.432;2023-02-14T00:47:26;41.63;;;15.50;;
37087;SDS011;23002;52.676;6.432;2023-02-14T00:49:53;43.83;;;15.80;;
37087;SDS011;23002;52.676;6.432;2023-02-14T00:52:21;38.40;;;15.75;;
37087;SDS011;23002;52.676;6.432;2023-02-14T00:54:48;40.70;;;15.02;;
37087;SDS011;23002;52.676;6.432;2023-02-14T00:57:15;40.42;;;14.93;;
37087;SDS011;23002;52.676;6.432;2023-02-14T00:59:42;32.22;;;13.55;;
37087;SDS011;23002;52.676;6.432;2023-02-14T01:02:09;36.00;;;13.98;;
37087;SDS011;23002;52.676;6.432;2023-02-14T01:04:36;37.88;;;14.63;;
37087;SDS011;23002;52.676;6.432;2023-02-14T01:07:04;36.38;;;14.23;;
37087;SDS011;23002;52.676;6.432;2023-02-14T01:09:31;38.90;;;15.23;;
37087;SDS011;23002;52.676;6.432;2023-02-14T01:11:58;35.72;;;14.52;;
37087;SDS011;23002;52.676;6.432;2023-02-14T01:14:25;32.13;;;13.90;;
37087;SDS011;23002;52.676;6.432;2023-02-14T01:16:52;45.25;;;15.98;;
37087;SDS011;23002;52.676;6.432;2023-02-14T01:19:19;43.63;;;15.77;;
37087;SDS011;23002;52.676;6.432;2023-02-14T01:21:46;45.67;;;16.05;;
37087;SDS011;23002;52.676;6.432;2023-02-14T01:24:13;39.92;;;16.27;;
37087;SDS011;23002;52.676;6.432;2023-02-14T01:26:41;43.13;;;17.25;;
37087;SDS011;23002;52.676;6.432;2023-02-14T01:29:08;45.13;;;17.05;;
37087;SDS011;23002;52.676;6.432;2023-02-14T01:31:35;47.13;;;17.23;;
37087;SDS011;23002;52.676;6.432;2023-02-14T01:34:02;43.97;;;17.05;;
37087;SDS011;23002;52.676;6.432;2023-02-14T01:36:30;46.30;;;17.25;;
37087;SDS011;23002;52.676;6.432;2023-02-14T01:38:59;41.03;;;17.52;;
37087;SDS011;23002;52.676;6.432;2023-02-14T01:41:28;49.67;;;19.52;;
37087;SDS011;23002;52.676;6.432;2023-02-14T01:46:23;46.67;;;17.98;;
37087;SDS011;23002;52.676;6.432;2023-02-14T01:48:51;48.15;;;18.23;;
37087;SDS011;23002;52.676;6.432;2023-02-14T01:51:19;51.47;;;20.60;;
37087;SDS011;23002;52.676;6.432;2023-02-14T01:53:47;54.72;;;19.08;;
37087;SDS011;23002;52.676;6.432;2023-02-14T01:56:17;49.72;;;17.85;;
37087;SDS011;23002;52.676;6.432;2023-02-14T01:58:45;52.80;;;19.08;;
37087;SDS011;23002;52.676;6.432;2023-02-14T02:01:15;52.67;;;20.15;;
37087;SDS011;23002;52.676;6.432;2023-02-14T02:03:43;55.42;;;19.88;;
37087;SDS011;23002;52.676;6.432;2023-02-14T02:06:17;47.75;;;18.80;;
37087;SDS011;23002;52.676;6.432;2023-02-14T02:08:47;50.72;;;18.10;;
37087;SDS011;23002;52.676;6.432;2023-02-14T02:11:16;49.05;;;17.70;;
37087;SDS011;23002;52.676;6.432;2023-02-14T02:13:43;50.47;;;18.20;;
37087;SDS011;23002;52.676;6.432;2023-02-14T02:27:55;51.83;;;19.45;;
37087;SDS011;23002;52.676;6.432;2023-02-14T02:40:43;47.88;;;17.80;;
37087;SDS011;23002;52.676;6.432;2023-02-14T02:52:16;50.65;;;17.67;;
37087;SDS011;23002;52.676;6.432;2023-02-14T02:55:11;47.90;;;17.75;;
37087;SDS011;23002;52.676;6.432;2023-02-14T02:57:39;45.05;;;16.80;;
37087;SDS011;23002;52.676;6.432;2023-02-14T03:00:08;40.00;;;15.40;;
37087;SDS011;23002;52.676;6.432;2023-02-14T03:02:38;43.78;;;16.45;;
37087;SDS011;23002;52.676;6.432;2023-02-14T03:05:26;41.40;;;15.65;;
37087;SDS011;23002;52.676;6.432;2023-02-14T03:07:54;41.78;;;14.73;;
37087;SDS011;23002;52.676;6.432;2023-02-14T03:10:23;37.28;;;14.02;;
37087;SDS011;23002;52.676;6.432;2023-02-14T03:18:38;31.75;;;15.35;;
37087;SDS011;23002;52.676;6.432;2023-02-14T03:24:01;40.33;;;15.35;;
37087;SDS011;23002;52.676;6.432;2023-02-14T03:26:33;37.28;;;15.20;;
37087;SDS011;23002;52.676;6.432;2023-02-14T03:29:26;33.20;;;14.20;;
37087;SDS011;23002;52.676;6.432;2023-02-14T03:31:53;33.58;;;13.30;;
37087;SDS011;23002;52.676;6.432;2023-02-14T03:34:27;39.77;;;13.90;;
37087;SDS011;23002;52.676;6.432;2023-02-14T03:36:59;37.65;;;13.73;;
37087;SDS011;23002;52.676;6.432;2023-02-14T03:39:29;35.92;;;14.88;;
37087;SDS011;23002;52.676;6.432;2023-02-14T03:42:00;40.25;;;15.32;;
37087;SDS011;23002;52.676;6.432;2023-02-14T03:44:31;37.00;;;15.10;;
37087;SDS011;23002;52.676;6.432;2023-02-14T03:47:01;35.05;;;15.95;;
37087;SDS011;23002;52.676;6.432;2023-02-14T03:49:31;39.63;;;15.85;;
37087;SDS011;23002;52.676;6.432;2023-02-14T03:52:00;39.17;;;16.15;;
37087;SDS011;23002;52.676;6.432;2023-02-14T03:54:28;46.13;;;16.45;;
37087;SDS011;23002;52.676;6.432;2023-02-14T03:57:10;43.58;;;15.40;;
37087;SDS011;23002;52.676;6.432;2023-02-14T03:59:39;43.22;;;16.50;;
37087;SDS011;23002;52.676;6.432;2023-02-14T04:02:11;40.65;;;16.00;;
37087;SDS011;23002;52.676;6.432;2023-02-14T04:04:41;40.33;;;15.68;;
37087;SDS011;23002;52.676;6.432;2023-02-14T04:07:10;35.72;;;15.85;;
37087;SDS011;23002;52.676;6.432;2023-02-14T04:09:38;37.83;;;15.95;;
37087;SDS011;23002;52.676;6.432;2023-02-14T04:12:05;45.40;;;16.48;;
37087;SDS011;23002;52.676;6.432;2023-02-14T04:14:32;33.03;;;14.55;;
37087;SDS011;23002;52.676;6.432;2023-02-14T04:17:00;34.80;;;14.07;;
37087;SDS011;23002;52.676;6.432;2023-02-14T04:19:46;33.58;;;13.48;;
37087;SDS011;23002;52.676;6.432;2023-02-14T04:22:13;35.50;;;14.10;;
37087;SDS011;23002;52.676;6.432;2023-02-14T04:24:40;28.80;;;12.73;;
37087;SDS011;23002;52.676;6.432;2023-02-14T04:27:07;32.97;;;13.70;;
37087;SDS011;23002;52.676;6.432;2023-02-14T04:29:38;35.88;;;15.30;;
37087;SDS011;23002;52.676;6.432;2023-02-14T04:32:07;31.15;;;13.80;;
37087;SDS011;23002;52.676;6.432;2023-02-14T04:34:35;26.90;;;11.57;;
37087;SDS011;23002;52.676;6.432;2023-02-14T04:37:02;29.58;;;12.48;;
37087;SDS011;23002;52.676;6.432;2023-02-14T04:39:29;33.25;;;14.15;;
37087;SDS011;23002;52.676;6.432;2023-02-14T04:41:56;31.73;;;13.82;;
37087;SDS011;23002;52.676;6.432;2023-02-14T04:44:24;37.60;;;15.05;;
37087;SDS011;23002;52.676;6.432;2023-02-14T04:46:51;49.17;;;15.73;;
37087;SDS011;23002;52.676;6.432;2023-02-14T04:49:18;34.10;;;15.10;;
37087;SDS011;23002;52.676;6.432;2023-02-14T04:51:45;43.20;;;16.13;;
37087;SDS011;23002;52.676;6.432;2023-02-14T04:54:13;40.72;;;16.90;;
37087;SDS011;23002;52.676;6.432;2023-02-14T04:56:40;42.88;;;17.23;;
37087;SDS011;23002;52.676;6.432;2023-02-14T04:59:07;44.22;;;17.30;;
37087;SDS011;23002;52.676;6.432;2023-02-14T05:01:34;44.20;;;18.17;;
37087;SDS011;23002;52.676;6.432;2023-02-14T05:04:02;39.97;;;16.40;;
37087;SDS011;23002;52.676;6.432;2023-02-14T05:06:29;39.40;;;15.85;;
37087;SDS011;23002;52.676;6.432;2023-02-14T05:08:56;43.38;;;16.08;;
37087;SDS011;23002;52.676;6.432;2023-02-14T05:11:23;40.13;;;16.45;;
37087;SDS011;23002;52.676;6.432;2023-02-14T05:13:50;39.85;;;14.60;;
37087;SDS011;23002;52.676;6.432;2023-02-14T05:16:17;31.75;;;13.68;;
37087;SDS011;23002;52.676;6.432;2023-02-14T05:18:45;34.92;;;13.13;;
37087;SDS011;23002;52.676;6.432;2023-02-14T05:21:12;28.70;;;12.95;;
37087;SDS011;23002;52.676;6.432;2023-02-14T05:23:39;37.78;;;15.43;;
37087;SDS011;23002;52.676;6.432;2023-02-14T05:26:06;29.30;;;14.15;;
37087;SDS011;23002;52.676;6.432;2023-02-14T05:28:34;37.42;;;13.77;;
37087;SDS011;23002;52.676;6.432;2023-02-14T05:31:01;37.28;;;14.93;;
37087;SDS011;23002;52.676;6.432;2023-02-14T05:33:29;30.13;;;13.70;;
37087;SDS011;23002;52.676;6.432;2023-02-14T05:35:59;38.03;;;15.23;;
37087;SDS011;23002;52.676;6.432;2023-02-14T05:38:28;30.20;;;15.67;;
37087;SDS011;23002;52.676;6.432;2023-02-14T05:40:55;36.97;;;15.85;;
37087;SDS011;23002;52.676;6.432;2023-02-14T05:43:22;31.70;;;14.80;;
37087;SDS011;23002;52.676;6.432;2023-02-14T05:45:51;31.90;;;14.60;;
37087;SDS011;23002;52.676;6.432;2023-02-14T05:48:19;33.13;;;14.48;;
37087;SDS011;23002;52.676;6.432;2023-02-14T05:50:46;39.83;;;16.35;;
37087;SDS011;23002;52.676;6.432;2023-02-14T05:53:14;34.22;;;13.52;;
37087;SDS011;23002;52.676;6.432;2023-02-14T05:55:41;28.92;;;13.02;;
37087;SDS011;23002;52.676;6.432;2023-02-14T05:58:08;29.58;;;13.68;;
37087;SDS011;23002;52.676;6.432;2023-02-14T06:00:37;32.85;;;14.05;;
37087;SDS011;23002;52.676;6.432;2023-02-14T06:03:06;28.20;;;13.25;;
37087;SDS011;23002;52.676;6.432;2023-02-14T06:05:33;31.77;;;14.43;;
37087;SDS011;23002;52.676;6.432;2023-02-14T06:08:00;31.88;;;13.25;;
37087;SDS011;23002;52.676;6.432;2023-02-14T06:10:28;30.70;;;13.18;;
37087;SDS011;23002;52.676;6.432;2023-02-14T06:12:55;25.38;;;13.68;;
37087;SDS011;23002;52.676;6.432;2023-02-14T06:15:22;29.92;;;13.70;;
37087;SDS011;23002;52.676;6.432;2023-02-14T06:17:56;28.60;;;14.00;;
37087;SDS011;23002;52.676;6.432;2023-02-14T06:20:23;32.00;;;13.13;;
37087;SDS011;23002;52.676;6.432;2023-02-14T06:22:51;28.95;;;12.40;;
37087;SDS011;23002;52.676;6.432;2023-02-14T06:25:18;28.83;;;13.13;;
37087;SDS011;23002;52.676;6.432;2023-02-14T06:27:45;33.60;;;12.98;;
37087;SDS011;23002;52.676;6.432;2023-02-14T06:30:14;28.45;;;12.23;;
37087;SDS011;23002;52.676;6.432;2023-02-14T06:32:42;30.17;;;12.57;;
37087;SDS011;23002;52.676;6.432;2023-02-14T06:35:09;27.83;;;13.15;;
37087;SDS011;23002;52.676;6.432;2023-02-14T06:37:36;23.95;;;12.10;;
37087;SDS011;23002;52.676;6.432;2023-02-14T06:40:04;28.95;;;13.38;;
37087;SDS011;23002;52.676;6.432;2023-02-14T06:42:31;30.55;;;13.40;;
37087;SDS011;23002;52.676;6.432;2023-02-14T06:44:58;35.63;;;12.88;;
37087;SDS011;23002;52.676;6.432;2023-02-14T06:47:25;25.80;;;12.32;;
37087;SDS011;23002;52.676;6.432;2023-02-14T06:49:52;25.45;;;12.07;;
37087;SDS011;23002;52.676;6.432;2023-02-14T06:52:20;30.10;;;13.95;;
37087;SDS011;23002;52.676;6.432;2023-02-14T06:54:47;27.90;;;13.15;;
37087;SDS011;23002;52.676;6.432;2023-02-14T06:57:14;29.67;;;13.88;;
37087;SDS011;23002;52.676;6.432;2023-02-14T06:59:41;39.53;;;14.68;;
37087;SDS011;23002;52.676;6.432;2023-02-14T07:02:09;31.77;;;14.57;;
37087;SDS011;23002;52.676;6.432;2023-02-14T07:04:37;37.45;;;15.80;;
37087;SDS011;23002;52.676;6.432;2023-02-14T07:07:04;35.50;;;14.45;;
37087;SDS011;23002;52.676;6.432;2023-02-14T07:09:31;33.92;;;14.35;;
37087;SDS011;23002;52.676;6.432;2023-02-14T07:11:58;39.10;;;14.95;;
37087;SDS011;23002;52.676;6.432;2023-02-14T07:14:26;38.10;;;16.30;;
37087;SDS011;23002;52.676;6.432;2023-02-14T07:16:53;40.85;;;16.60;;
37087;SDS011;23002;52.676;6.432;2023-02-14T07:19:20;38.88;;;15.20;;
37087;SDS011;23002;52.676;6.432;2023-02-14T07:21:47;38.25;;;16.35;;
37087;SDS011;23002;52.676;6.432;2023-02-14T07:24:14;38.75;;;15.65;;
37087;SDS011;23002;52.676;6.432;2023-02-14T07:26:41;39.80;;;18.50;;
37087;SDS011;23002;52.676;6.432;2023-02-14T07:29:08;36.72;;;16.08;;
37087;SDS011;23002;52.676;6.432;2023-02-14T07:31:35;35.30;;;15.40;;
37087;SDS011;23002;52.676;6.432;2023-02-14T07:34:03;38.17;;;15.00;;
37087;SDS011;23002;52.676;6.432;2023-02-14T07:36:30;35.55;;;15.90;;
37087;SDS011;23002;52.676;6.432;2023-02-14T07:38:57;35.92;;;14.40;;
37087;SDS011;23002;52.676;6.432;2023-02-14T07:41:24;32.80;;;15.13;;
37087;SDS011;23002;52.676;6.432;2023-02-14T07:43:52;32.97;;;15.65;;
37087;SDS011;23002;52.676;6.432;2023-02-14T07:46:19;39.42;;;15.02;;
37087;SDS011;23002;52.676;6.432;2023-02-14T07:48:46;36.30;;;16.60;;
37087;SDS011;23002;52.676;6.432;2023-02-14T07:51:14;36.75;;;15.75;;
37087;SDS011;23002;52.676;6.432;2023-02-14T07:53:41;39.33;;;17.45;;
37087;SDS011;23002;52.676;6.432;2023-02-14T07:56:08;34.35;;;14.68;;
37087;SDS011;23002;52.676;6.432;2023-02-14T07:58:35;37.17;;;15.40;;
37087;SDS011;23002;52.676;6.432;2023-02-14T08:01:02;32.67;;;16.58;;
37087;SDS011;23002;52.676;6.432;2023-02-14T08:03:29;42.95;;;18.52;;
37087;SDS011;23002;52.676;6.432;2023-02-14T08:05:56;42.90;;;18.73;;
37087;SDS011;23002;52.676;6.432;2023-02-14T08:08:24;45.15;;;19.13;;
37087;SDS011;23002;52.676;6.432;2023-02-14T08:10:52;45.30;;;18.83;;
37087;SDS011;23002;52.676;6.432;2023-02-14T08:13:19;45.55;;;18.90;;
37087;SDS011;23002;52.676;6.432;2023-02-14T08:15:47;43.85;;;19.13;;
37087;SDS011;23002;52.676;6.432;2023-02-14T08:18:38;43.58;;;20.20;;
37087;SDS011;23002;52.676;6.432;2023-02-14T08:21:06;50.70;;;20.33;;
37087;SDS011;23002;52.676;6.432;2023-02-14T08:23:33;50.58;;;19.00;;
37087;SDS011;23002;52.676;6.432;2023-02-14T08:26:01;48.88;;;21.00;;
37087;SDS011;23002;52.676;6.432;2023-02-14T08:28:28;54.58;;;20.35;;
37087;SDS011;23002;52.676;6.432;2023-02-14T08:30:57;50.65;;;20.85;;
37087;SDS011;23002;52.676;6.432;2023-02-14T08:33:24;55.83;;;22.38;;
37087;SDS011;23002;52.676;6.432;2023-02-14T08:35:52;49.72;;;21.30;;
37087;SDS011;23002;52.676;6.432;2023-02-14T08:38:19;55.80;;;22.38;;
37087;SDS011;23002;52.676;6.432;2023-02-14T08:40:46;54.55;;;22.98;;
37087;SDS011;23002;52.676;6.432;2023-02-14T08:43:13;62.10;;;23.15;;
37087;SDS011;23002;52.676;6.432;2023-02-14T08:45:41;61.50;;;23.92;;
37087;SDS011;23002;52.676;6.432;2023-02-14T08:48:09;58.40;;;24.23;;
37087;SDS011;23002;52.676;6.432;2023-02-14T08:50:36;64.20;;;24.27;;
37087;SDS011;23002;52.676;6.432;2023-02-14T08:53:08;63.45;;;26.10;;
37087;SDS011;23002;52.676;6.432;2023-02-14T08:55:36;63.53;;;27.58;;
37087;SDS011;23002;52.676;6.432;2023-02-14T08:58:04;74.30;;;27.20;;
37087;SDS011;23002;52.676;6.432;2023-02-14T09:00:32;72.47;;;27.98;;
37087;SDS011;23002;52.676;6.432;2023-02-14T09:02:59;74.03;;;27.00;;
37087;SDS011;23002;52.676;6.432;2023-02-14T09:05:26;71.22;;;27.67;;
37087;SDS011;23002;52.676;6.432;2023-02-14T09:07:54;76.25;;;28.90;;
37087;SDS011;23002;52.676;6.432;2023-02-14T09:10:22;57.10;;;24.05;;
37087;SDS011;23002;52.676;6.432;2023-02-14T09:12:49;61.60;;;26.02;;
37087;SDS011;23002;52.676;6.432;2023-02-14T09:15:16;65.45;;;26.60;;
37087;SDS011;23002;52.676;6.432;2023-02-14T09:17:44;48.28;;;22.42;;
37087;SDS011;23002;52.676;6.432;2023-02-14T09:20:12;49.72;;;22.83;;
37087;SDS011;23002;52.676;6.432;2023-02-14T09:22:39;46.78;;;21.40;;
37087;SDS011;23002;52.676;6.432;2023-02-14T09:25:07;46.85;;;20.50;;
37087;SDS011;23002;52.676;6.432;2023-02-14T09:27:34;41.72;;;20.77;;
37087;SDS011;23002;52.676;6.432;2023-02-14T09:30:01;40.65;;;19.48;;
37087;SDS011;23002;52.676;6.432;2023-02-14T09:32:29;42.92;;;19.80;;
37087;SDS011;23002;52.676;6.432;2023-02-14T09:34:56;34.72;;;17.92;;
37087;SDS011;23002;52.676;6.432;2023-02-14T09:37:23;38.08;;;17.58;;
37087;SDS011;23002;52.676;6.432;2023-02-14T09:40:12;25.67;;;14.50;;
37087;SDS011;23002;52.676;6.432;2023-02-14T09:42:59;20.02;;;10.52;;
37087;SDS011;23002;52.676;6.432;2023-02-14T09:45:28;16.92;;;8.85;;
37087;SDS011;23002;52.676;6.432;2023-02-14T09:50:43;14.95;;;7.97;;
37087;SDS011;23002;52.676;6.432;2023-02-14T09:55:41;17.60;;;8.70;;
37087;SDS011;23002;52.676;6.432;2023-02-14T09:58:13;13.70;;;7.20;;
37087;SDS011;23002;52.676;6.432;2023-02-14T10:00:45;13.05;;;7.93;;
37087;SDS011;23002;52.676;6.432;2023-02-14T10:05:55;16.00;;;8.30;;
37087;SDS011;23002;52.676;6.432;2023-02-14T10:11:05;14.55;;;7.20;;
37087;SDS011;23002;52.676;6.432;2023-02-14T10:13:40;13.40;;;8.20;;
37087;SDS011;23002;52.676;6.432;2023-02-14T10:16:17;12.68;;;7.65;;
37087;SDS011;23002;52.676;6.432;2023-02-14T10:19:00;15.10;;;7.82;;
37087;SDS011;23002;52.676;6.432;2023-02-14T10:21:35;14.40;;;7.85;;
37087;SDS011;23002;52.676;6.432;2023-02-14T10:24:08;15.82;;;8.07;;
37087;SDS011;23002;52.676;6.432;2023-02-14T10:26:37;17.42;;;8.90;;
37087;SDS011;23002;52.676;6.432;2023-02-14T10:29:09;16.95;;;8.90;;
37087;SDS011;23002;52.676;6.432;2023-02-14T10:31:41;13.60;;;7.80;;
37087;SDS011;23002;52.676;6.432;2023-02-14T10:39:52;20.20;;;9.32;;
37087;SDS011;23002;52.676;6.432;2023-02-14T10:55:14;18.48;;;9.73;;
37087;SDS011;23002;52.676;6.432;2023-02-14T10:57:57;20.42;;;9.18;;
37087;SDS011;23002;52.676;6.432;2023-02-14T11:00:29;21.25;;;10.60;;
37087;SDS011;23002;52.676;6.432;2023-02-14T11:02:59;18.40;;;9.45;;
37087;SDS011;23002;52.676;6.432;2023-02-14T11:07:56;17.65;;;9.55;;
37087;SDS011;23002;52.676;6.432;2023-02-14T11:10:25;18.05;;;9.63;;
37087;SDS011;23002;52.676;6.432;2023-02-14T11:12:55;21.02;;;8.82;;
37087;SDS011;23002;52.676;6.432;2023-02-14T11:15:24;22.30;;;9.57;;
37087;SDS011;23002;52.676;6.432;2023-02-14T11:18:06;19.27;;;9.68;;
37087;SDS011;23002;52.676;6.432;2023-02-14T11:20:34;18.15;;;9.85;;
37087;SDS011;23002;52.676;6.432;2023-02-14T11:23:01;17.65;;;9.15;;
37087;SDS011;23002;52.676;6.432;2023-02-14T11:25:43;19.60;;;10.80;;
37087;SDS011;23002;52.676;6.432;2023-02-14T11:28:15;20.98;;;10.38;;
37087;SDS011;23002;52.676;6.432;2023-02-14T11:30:45;18.65;;;10.30;;
37087;SDS011;23002;52.676;6.432;2023-02-14T11:33:28;21.73;;;10.63;;
37087;SDS011;23002;52.676;6.432;2023-02-14T11:35:58;18.17;;;9.85;;
37087;SDS011;23002;52.676;6.432;2023-02-14T11:38:30;17.73;;;9.95;;
37087;SDS011;23002;52.676;6.432;2023-02-14T11:40:59;19.90;;;10.13;;
37087;SDS011;23002;52.676;6.432;2023-02-14T11:43:32;21.65;;;10.05;;
37087;SDS011;23002;52.676;6.432;2023-02-14T11:46:42;20.83;;;10.07;;
37087;SDS011;23002;52.676;6.432;2023-02-14T11:48:54;18.52;;;10.05;;
37087;SDS011;23002;52.676;6.432;2023-02-14T11:51:25;17.70;;;9.88;;
37087;SDS011;23002;52.676;6.432;2023-02-14T11:53:55;17.92;;;9.05;;
37087;SDS011;23002;52.676;6.432;2023-02-14T11:56:40;20.42;;;9.60;;
37087;SDS011;23002;52.676;6.432;2023-02-14T11:59:09;19.33;;;10.18;;
37087;SDS011;23002;52.676;6.432;2023-02-14T12:01:38;21.85;;;10.65;;
37087;SDS011;23002;52.676;6.432;2023-02-14T12:04:40;23.65;;;10.50;;
37087;SDS011;23002;52.676;6.432;2023-02-14T12:07:31;19.42;;;10.20;;
37087;SDS011;23002;52.676;6.432;2023-02-14T12:12:36;19.65;;;10.35;;
37087;SDS011;23002;52.676;6.432;2023-02-14T12:17:52;18.58;;;9.65;;
37087;SDS011;23002;52.676;6.432;2023-02-14T12:20:25;21.08;;;10.15;;
37087;SDS011;23002;52.676;6.432;2023-02-14T12:23:04;18.73;;;10.88;;
37087;SDS011;23002;52.676;6.432;2023-02-14T12:25:55;20.73;;;10.65;;
37087;SDS011;23002;52.676;6.432;2023-02-14T12:28:31;20.35;;;9.90;;
37087;SDS011;23002;52.676;6.432;2023-02-14T12:31:10;19.60;;;10.73;;
37087;SDS011;23002;52.676;6.432;2023-02-14T12:33:38;20.40;;;10.55;;
37087;SDS011;23002;52.676;6.432;2023-02-14T12:36:15;20.60;;;11.65;;
37087;SDS011;23002;52.676;6.432;2023-02-14T12:43:55;20.90;;;10.93;;
37087;SDS011;23002;52.676;6.432;2023-02-14T13:06:47;20.15;;;10.68;;
37087;SDS011;23002;52.676;6.432;2023-02-14T13:21:47;21.00;;;10.77;;
37087;SDS011;23002;52.676;6.432;2023-02-14T13:24:16;24.83;;;11.65;;
37087;SDS011;23002;52.676;6.432;2023-02-14T13:26:45;26.38;;;11.77;;
37087;SDS011;23002;52.676;6.432;2023-02-14T13:29:18;25.70;;;12.23;;
37087;SDS011;23002;52.676;6.432;2023-02-14T13:31:46;27.05;;;11.77;;
37087;SDS011;23002;52.676;6.432;2023-02-14T13:36:40;22.08;;;11.23;;
37087;SDS011;23002;52.676;6.432;2023-02-14T13:39:09;27.35;;;12.35;;
37087;SDS011;23002;52.676;6.432;2023-02-14T13:41:39;23.02;;;11.40;;
37087;SDS011;23002;52.676;6.432;2023-02-14T13:44:07;25.30;;;12.05;;
37087;SDS011;23002;52.676;6.432;2023-02-14T13:51:48;25.98;;;12.77;;
37087;SDS011;23002;52.676;6.432;2023-02-14T13:54:19;27.42;;;12.10;;
37087;SDS011;23002;52.676;6.432;2023-02-14T13:56:47;20.95;;;11.63;;
37087;SDS011;23002;52.676;6.432;2023-02-14T13:59:26;27.13;;;11.93;;
37087;SDS011;23002;52.676;6.432;2023-02-14T14:01:54;22.65;;;11.52;;
37087;SDS011;23002;52.676;6.432;2023-02-14T14:15:23;25.42;;;11.25;;
37087;SDS011;23002;52.676;6.432;2023-02-14T14:17:45;23.05;;;12.13;;
37087;SDS011;23002;52.676;6.432;2023-02-14T14:22:49;27.40;;;12.65;;
37087;SDS011;23002;52.676;6.432;2023-02-14T14:27:56;21.05;;;11.40;;
37087;SDS011;23002;52.676;6.432;2023-02-14T14:30:24;25.95;;;12.05;;
37087;SDS011;23002;52.676;6.432;2023-02-14T14:32:53;21.60;;;11.05;;
37087;SDS011;23002;52.676;6.432;2023-02-14T14:35:21;26.58;;;11.95;;
37087;SDS011;23002;52.676;6.432;2023-02-14T14:37:53;25.85;;;12.75;;
37087;SDS011;23002;52.676;6.432;2023-02-14T14:40:28;26.25;;;12.45;;
37087;SDS011;23002;52.676;6.432;2023-02-14T14:42:59;26.17;;;13.10;;
37087;SDS011;23002;52.676;6.432;2023-02-14T14:45:27;23.23;;;12.05;;
37087;SDS011;23002;52.676;6.432;2023-02-14T14:47:55;23.08;;;11.75;;
37087;SDS011;23002;52.676;6.432;2023-02-14T14:50:27;24.27;;;11.80;;
37087;SDS011;23002;52.676;6.432;2023-02-14T14:52:56;26.52;;;11.85;;
37087;SDS011;23002;52.676;6.432;2023-02-14T14:55:30;25.73;;;12.32;;
37087;SDS011;23002;52.676;6.432;2023-02-14T14:58:00;27.40;;;12.40;;
37087;SDS011;23002;52.676;6.432;2023-02-14T15:00:35;26.33;;;13.40;;
37087;SDS011;23002;52.676;6.432;2023-02-14T15:05:31;28.52;;;12.68;;
37087;SDS011;23002;52.676;6.432;2023-02-14T15:13:17;26.38;;;13.00;;
37087;SDS011;23002;52.676;6.432;2023-02-14T15:16:03;23.85;;;12.52;;
37087;SDS011;23002;52.676;6.432;2023-02-14T15:18:30;31.23;;;13.52;;
37087;SDS011;23002;52.676;6.432;2023-02-14T15:20:58;29.60;;;13.88;;
37087;SDS011;23002;52.676;6.432;2023-02-14T15:23:25;29.58;;;13.52;;
37087;SDS011;23002;52.676;6.432;2023-02-14T15:25:53;27.30;;;12.50;;
37087;SDS011;23002;52.676;6.432;2023-02-14T15:28:31;30.92;;;12.57;;
37087;SDS011;23002;52.676;6.432;2023-02-14T15:31:00;27.80;;;13.23;;
37087;SDS011;23002;52.676;6.432;2023-02-14T15:33:28;24.20;;;12.57;;
37087;SDS011;23002;52.676;6.432;2023-02-14T15:35:57;28.27;;;13.40;;
37087;SDS011;23002;52.676;6.432;2023-02-14T15:38:25;28.35;;;11.70;;
37087;SDS011;23002;52.676;6.432;2023-02-14T15:40:53;28.40;;;12.98;;
37087;SDS011;23002;52.676;6.432;2023-02-14T15:43:25;26.10;;;12.48;;
37087;SDS011;23002;52.676;6.432;2023-02-14T15:45:57;27.75;;;13.02;;
37087;SDS011;23002;52.676;6.432;2023-02-14T15:48:32;28.70;;;14.27;;
37087;SDS011;23002;52.676;6.432;2023-02-14T15:51:00;28.17;;;13.55;;
37087;SDS011;23002;52.676;6.432;2023-02-14T15:53:32;28.40;;;14.02;;
37087;SDS011;23002;52.676;6.432;2023-02-14T15:56:01;29.17;;;13.57;;
37087;SDS011;23002;52.676;6.432;2023-02-14T15:58:30;23.75;;;11.50;;
37087;SDS011;23002;52.676;6.432;2023-02-14T16:00:58;27.88;;;12.90;;
37087;SDS011;23002;52.676;6.432;2023-02-14T16:03:26;26.45;;;12.77;;
37087;SDS011;23002;52.676;6.432;2023-02-14T16:05:54;30.45;;;13.13;;
37087;SDS011;23002;52.676;6.432;2023-02-14T16:08:26;26.48;;;12.93;;
37087;SDS011;23002;52.676;6.432;2023-02-14T16:10:59;27.50;;;12.25;;
37087;SDS011;23002;52.676;6.432;2023-02-14T16:13:37;28.67;;;13.48;;
37087;SDS011;23002;52.676;6.432;2023-02-14T16:16:05;27.48;;;13.10;;
37087;SDS011;23002;52.676;6.432;2023-02-14T16:23:36;27.88;;;13.27;;
37087;SDS011;23002;52.676;6.432;2023-02-14T16:26:06;39.17;;;17.20;;
37087;SDS011;23002;52.676;6.432;2023-02-14T16:28:33;31.38;;;14.68;;
37087;SDS011;23002;52.676;6.432;2023-02-14T16:31:05;32.55;;;15.55;;
37087;SDS011;23002;52.676;6.432;2023-02-14T16:33:37;34.13;;;15.10;;
37087;SDS011;23002;52.676;6.432;2023-02-14T16:36:06;33.15;;;14.15;;
37087;SDS011;23002;52.676;6.432;2023-02-14T16:38:35;35.30;;;14.98;;
37087;SDS011;23002;52.676;6.432;2023-02-14T16:43:34;35.05;;;13.43;;
37087;SDS011;23002;52.676;6.432;2023-02-14T16:46:02;37.38;;;15.55;;
37087;SDS011;23002;52.676;6.432;2023-02-14T16:48:29;36.92;;;16.23;;
37087;SDS011;23002;52.676;6.432;2023-02-14T16:50:56;32.38;;;15.35;;
37087;SDS011;23002;52.676;6.432;2023-02-14T16:53:26;33.78;;;14.75;;
37087;SDS011;23002;52.676;6.432;2023-02-14T16:55:55;33.28;;;14.70;;
37087;SDS011;23002;52.676;6.432;2023-02-14T16:58:24;35.03;;;15.32;;
37087;SDS011;23002;52.676;6.432;2023-02-14T17:00:53;36.17;;;15.02;;
37087;SDS011;23002;52.676;6.432;2023-02-14T17:03:20;35.28;;;15.60;;
37087;SDS011;23002;52.676;6.432;2023-02-14T17:05:47;32.55;;;13.95;;
37087;SDS011;23002;52.676;6.432;2023-02-14T17:08:14;30.23;;;13.70;;
37087;SDS011;23002;52.676;6.432;2023-02-14T17:10:41;36.40;;;16.70;;
37087;SDS011;23002;52.676;6.432;2023-02-14T17:13:09;37.58;;;15.00;;